createdAt,value
2019-05-06T00:00:56.583Z,4.10
2019-05-06T00:03:17.670Z,3.40
2019-05-06T00:05:47.022Z,5.17
2019-05-06T00:08:16.418Z,4.90
2019-05-06T00:10:45.882Z,3.77
2019-05-06T00:13:15.250Z,4.03
2019-05-06T00:15:44.204Z,3.60
2019-05-06T00:18:13.849Z,1.17
2019-05-06T00:20:43.819Z,3.43
2019-05-06T00:23:24.953Z,3.40
2019-05-06T00:26:07.185Z,2.90
2019-05-06T00:28:45.450Z,3.20
2019-05-06T00:31:16.699Z,3.60
2019-05-06T00:33:45.707Z,3.00
2019-05-06T00:36:14.684Z,3.33
2019-05-06T00:38:45.190Z,3.60
2019-05-06T00:41:19.893Z,3.23
2019-05-06T00:43:49.158Z,3.43
2019-05-06T00:46:18.434Z,3.57
2019-05-06T00:48:47.691Z,3.87
2019-05-06T00:51:16.954Z,3.30
2019-05-06T00:53:50.459Z,3.80
2019-05-06T00:56:19.379Z,3.80
2019-05-06T00:58:48.650Z,5.10
2019-05-06T01:01:26.999Z,4.10
2019-05-06T01:03:48.835Z,3.90
2019-05-06T01:06:18.085Z,3.80
2019-05-06T01:08:47.645Z,3.90
2019-05-06T01:11:16.582Z,4.80
2019-05-06T01:14:11.102Z,3.50
2019-05-06T01:16:40.637Z,3.87
2019-05-06T01:19:09.687Z,4.23
2019-05-06T01:21:38.714Z,3.67
2019-05-06T01:24:08.241Z,3.77
2019-05-06T01:26:37.731Z,3.20
2019-05-06T01:29:06.659Z,3.17
2019-05-06T01:31:42.789Z,3.17
2019-05-06T01:34:06.869Z,1.27
2019-05-06T01:36:35.891Z,3.50
2019-05-06T01:39:28.271Z,3.53
2019-05-06T01:42:13.746Z,3.73
2019-05-06T01:44:44.208Z,4.80
2019-05-06T01:47:14.572Z,4.03
2019-05-06T01:49:44.281Z,3.80
2019-05-06T01:52:14.721Z,3.90
2019-05-06T01:54:43.802Z,4.10
2019-05-06T01:57:13.713Z,3.70
2019-05-06T01:59:44.338Z,4.43
2019-05-06T02:02:14.348Z,3.90
2019-05-06T02:04:44.442Z,4.57
2019-05-06T02:07:14.508Z,6.20
2019-05-06T02:09:44.800Z,3.90
2019-05-06T02:12:14.642Z,4.40
2019-05-06T02:14:43.994Z,4.27
2019-05-06T02:17:14.397Z,4.53
2019-05-06T02:19:43.981Z,3.30
2019-05-06T02:22:24.121Z,4.00
2019-05-06T02:24:59.661Z,3.20
2019-05-06T02:27:28.652Z,4.40
2019-05-06T02:30:09.897Z,3.67
2019-05-06T02:32:55.774Z,4.10
2019-05-06T02:35:27.427Z,3.80
2019-05-06T02:37:56.347Z,3.80
2019-05-06T02:40:26.617Z,3.50
2019-05-06T02:42:55.938Z,4.17
2019-05-06T02:45:25.223Z,3.10
2019-05-06T02:48:13.723Z,3.30
2019-05-06T02:51:03.689Z,3.60
2019-05-06T02:53:33.771Z,3.50
2019-05-06T02:56:04.111Z,3.90
2019-05-06T02:58:33.530Z,3.97
2019-05-06T03:01:03.616Z,4.20
2019-05-06T03:03:33.630Z,3.80
2019-05-06T03:06:03.846Z,4.40
2019-05-06T03:08:33.456Z,4.17
2019-05-06T03:11:03.915Z,5.00
2019-05-06T03:13:34.155Z,3.77
2019-05-06T03:16:05.983Z,2.93
2019-05-06T03:18:34.827Z,4.57
2019-05-06T03:21:33.797Z,4.70
2019-05-06T03:24:19.049Z,4.20
2019-05-06T03:26:49.269Z,3.40
2019-05-06T03:29:18.595Z,3.80
2019-05-06T03:31:47.571Z,4.00
2019-05-06T03:34:48.038Z,3.57
2019-05-06T03:36:49.223Z,4.00
2019-05-06T03:39:18.561Z,4.10
2019-05-06T03:41:47.502Z,4.47
2019-05-06T03:44:16.925Z,4.37
2019-05-06T03:47:05.658Z,5.53
2019-05-06T03:49:36.674Z,4.73
2019-05-06T03:52:05.898Z,3.90
2019-05-06T03:54:35.589Z,4.10
2019-05-06T03:57:05.170Z,4.30
2019-05-06T03:59:34.196Z,4.57
2019-05-06T04:02:05.238Z,4.97
2019-05-06T04:04:33.826Z,4.57
2019-05-06T04:07:03.475Z,4.93
2019-05-06T04:09:36.686Z,4.90
2019-05-06T04:12:03.799Z,3.80
2019-05-06T04:14:34.043Z,4.60
2019-05-06T04:17:25.249Z,4.47
2019-05-06T04:20:04.017Z,5.73
2019-05-06T04:22:39.878Z,5.13
2019-05-06T04:25:30.726Z,5.00
2019-05-06T04:28:06.789Z,4.40
2019-05-06T04:30:36.003Z,4.00
2019-05-06T04:33:05.299Z,4.77
2019-05-06T04:35:34.680Z,4.70
2019-05-06T04:38:03.690Z,4.87
2019-05-06T04:40:33.189Z,5.10
2019-05-06T04:43:03.629Z,4.73
2019-05-06T04:45:33.905Z,4.60
2019-05-06T04:48:03.785Z,5.63
2019-05-06T04:50:33.208Z,5.67
2019-05-06T04:53:04.655Z,5.30
2019-05-06T04:55:33.988Z,5.47
2019-05-06T04:58:04.174Z,4.23
2019-05-06T05:00:33.546Z,5.93
2019-05-06T05:03:03.086Z,5.17
2019-05-06T05:05:33.120Z,5.00
2019-05-06T05:08:02.729Z,6.17
2019-05-06T05:10:43.169Z,5.90
2019-05-06T05:13:34.849Z,5.00
2019-05-06T05:16:42.099Z,5.57
2019-05-06T05:19:12.246Z,4.60
2019-05-06T05:21:42.879Z,5.43
2019-05-06T05:24:12.102Z,5.00
2019-05-06T05:26:45.123Z,4.57
2019-05-06T05:29:12.440Z,5.43
2019-05-06T05:31:43.569Z,5.40
2019-05-06T05:34:12.712Z,5.43
2019-05-06T05:36:42.651Z,5.70
2019-05-06T05:39:12.631Z,6.30
2019-05-06T05:41:42.932Z,6.03
2019-05-06T05:44:18.521Z,5.50
2019-05-06T05:46:47.513Z,6.37
2019-05-06T05:49:24.577Z,4.60
2019-05-06T05:51:53.757Z,5.67
2019-05-06T05:54:23.309Z,4.60
2019-05-06T05:56:52.930Z,4.77
2019-05-06T05:59:23.158Z,4.90
2019-05-06T06:01:53.231Z,5.87
2019-05-06T06:04:22.534Z,4.80
2019-05-06T06:06:52.072Z,5.20
2019-05-06T06:09:23.333Z,4.70
2019-05-06T06:11:54.431Z,5.80
2019-05-06T06:14:56.141Z,5.70
2019-05-06T06:17:45.944Z,4.23
2019-05-06T06:20:32.775Z,5.17
2019-05-06T06:23:07.043Z,5.70
2019-05-06T12:29:42.806Z,3.87
2019-05-06T12:32:24.925Z,2.67
2019-05-06T12:34:54.722Z,3.07
2019-05-06T12:37:25.842Z,3.37
2019-05-06T12:39:57.164Z,2.80
2019-05-06T12:42:43.173Z,3.60
2019-05-06T12:45:37.817Z,3.00
2019-05-06T12:48:14.713Z,3.10
2019-05-06T12:50:44.735Z,3.43
2019-05-06T12:53:14.346Z,3.30
2019-05-06T12:55:43.894Z,3.83
2019-05-06T12:58:13.837Z,3.03
2019-05-06T13:00:44.992Z,4.10
2019-05-06T13:03:14.228Z,3.53
2019-05-06T13:05:43.537Z,3.47
2019-05-06T13:08:19.808Z,3.70
2019-05-06T13:10:44.439Z,3.17
2019-05-06T13:13:13.965Z,4.23
2019-05-06T13:15:43.585Z,3.90
2019-05-06T13:18:13.134Z,3.83
2019-05-06T13:20:50.048Z,3.77
2019-05-06T13:23:25.764Z,2.83
2019-05-06T13:25:54.705Z,3.50
2019-05-06T13:28:25.644Z,3.33
2019-05-06T13:30:55.085Z,2.93
2019-05-06T13:33:29.685Z,4.03
2019-05-06T13:35:58.835Z,2.60
2019-05-06T13:38:28.729Z,3.50
2019-05-06T13:40:58.155Z,2.47
2019-05-06T13:43:35.584Z,3.63
2019-05-06T13:46:08.203Z,3.77
2019-05-06T13:48:43.161Z,4.43
2019-05-06T13:51:15.023Z,4.53
2019-05-06T13:53:46.327Z,4.30
2019-05-06T13:56:15.019Z,3.70
2019-05-06T13:58:44.403Z,3.40
2019-05-06T14:01:17.994Z,2.80
2019-05-06T14:03:48.020Z,3.10
2019-05-06T14:06:18.226Z,7.63
2019-05-06T14:08:47.950Z,6.50
2019-05-06T14:11:17.473Z,3.40
2019-05-06T14:13:46.650Z,3.40
2019-05-06T14:16:16.274Z,3.30
2019-05-06T14:18:45.441Z,3.63
2019-05-06T14:21:14.914Z,4.00
2019-05-06T14:23:44.402Z,2.80
2019-05-06T14:26:34.455Z,2.70
2019-05-06T14:29:28.484Z,3.60
2019-05-06T14:31:57.948Z,3.10
2019-05-06T14:34:27.534Z,3.13
2019-05-06T14:36:57.001Z,6.87
2019-05-06T14:39:44.676Z,3.30
2019-05-06T14:42:02.262Z,4.30
2019-05-06T14:44:32.697Z,3.87
2019-05-06T14:47:13.005Z,3.20
2019-05-06T14:49:43.181Z,3.70
2019-05-06T14:52:13.526Z,2.80
2019-05-06T14:54:53.228Z,3.90
2019-05-06T14:57:22.845Z,3.73
2019-05-06T14:59:55.503Z,3.53
2019-05-06T15:02:26.853Z,5.17
2019-05-06T15:04:56.541Z,4.07
2019-05-06T15:07:25.613Z,2.87
2019-05-06T15:10:07.992Z,3.77
2019-05-06T15:12:25.803Z,3.13
2019-05-06T15:14:55.281Z,3.80
2019-05-06T15:17:25.028Z,4.40
2019-05-06T15:19:54.293Z,4.50
2019-05-06T15:22:23.449Z,4.87
2019-05-06T15:24:53.879Z,4.37
2019-05-06T15:27:23.172Z,4.27
2019-05-06T15:29:55.483Z,5.40
2019-05-06T15:32:29.300Z,5.17
2019-05-06T15:35:22.312Z,4.47
2019-05-06T15:37:57.057Z,5.03
2019-05-06T15:40:32.904Z,4.77
2019-05-06T15:42:58.815Z,4.93
2019-05-06T15:45:29.186Z,4.27
2019-05-06T15:47:59.024Z,6.27
2019-05-06T15:50:28.971Z,5.80
2019-05-06T15:53:01.803Z,4.80
2019-05-06T15:55:32.677Z,4.33
2019-05-06T15:58:03.534Z,4.97
2019-05-06T16:00:33.245Z,4.97
2019-05-06T16:03:02.948Z,3.93
2019-05-06T16:05:34.314Z,5.07
2019-05-06T16:08:03.058Z,4.13
2019-05-06T16:10:37.930Z,4.20
2019-05-06T16:13:03.775Z,4.10
2019-05-06T16:15:33.678Z,4.20
2019-05-06T16:18:04.497Z,0.90
2019-05-06T16:20:33.973Z,4.13
2019-05-06T16:23:15.834Z,4.50
2019-05-06T16:25:45.387Z,5.10
2019-05-06T16:28:15.794Z,4.57
2019-05-06T16:30:45.558Z,3.80
2019-05-06T16:33:18.443Z,4.20
2019-05-06T16:35:45.920Z,3.73
2019-05-06T16:38:15.456Z,3.40
2019-05-06T16:40:45.350Z,4.63
2019-05-06T16:43:15.121Z,3.97
2019-05-06T16:45:45.472Z,4.10
2019-05-06T16:48:15.189Z,3.10
2019-05-06T16:50:44.710Z,1.67
2019-05-06T16:53:14.308Z,3.53
2019-05-06T16:56:14.318Z,3.80
2019-05-06T16:58:51.934Z,3.00
2019-05-06T17:01:22.152Z,2.73
2019-05-06T17:04:14.653Z,1.80
2019-05-06T17:06:44.257Z,4.20
2019-05-06T17:09:20.432Z,4.67
2019-05-06T17:11:44.867Z,3.90
2019-05-06T17:14:14.853Z,3.73
2019-05-06T17:16:44.459Z,4.33
2019-05-06T17:19:13.895Z,4.43
2019-05-06T17:21:43.309Z,5.37
2019-05-06T17:24:13.178Z,3.83
2019-05-06T17:26:42.753Z,4.20
2019-05-06T17:29:29.617Z,4.70
2019-05-06T17:32:08.361Z,6.10
2019-05-06T17:34:42.536Z,5.73
2019-05-06T17:37:32.460Z,5.40
2019-05-06T17:40:07.900Z,5.90
2019-05-06T17:42:33.351Z,6.77
2019-05-06T17:45:18.865Z,4.73
2019-05-06T17:47:52.874Z,4.67
2019-05-06T17:50:22.564Z,6.20
2019-05-06T17:52:52.771Z,6.90
2019-05-06T17:55:22.507Z,5.97
2019-05-06T17:57:52.846Z,6.53
2019-05-06T18:00:22.557Z,6.10
2019-05-06T18:02:52.648Z,5.70
2019-05-06T18:05:22.926Z,6.60
2019-05-06T18:07:52.126Z,7.30
2019-05-06T18:10:22.137Z,6.83
2019-05-06T18:12:53.057Z,6.77
2019-05-06T18:15:22.665Z,6.87
2019-05-06T18:17:52.580Z,6.33
2019-05-06T18:20:22.811Z,7.23
2019-05-06T18:22:52.675Z,7.20
2019-05-06T18:25:23.026Z,6.20
